createdAt,value
2022-10-29T00:01:05.688Z,82.31
2022-10-29T00:03:33.174Z,82.32
2022-10-29T00:06:08.085Z,82.44
2022-10-29T00:08:38.000Z,81.98
2022-10-29T00:11:12.011Z,82.69
2022-10-29T00:13:39.973Z,82.55
2022-10-29T00:16:18.876Z,82.80
2022-10-29T00:18:47.689Z,82.81
2022-10-29T00:21:21.032Z,82.64
2022-10-29T00:23:49.854Z,82.81
2022-10-29T00:26:19.653Z,82.70
2022-10-29T00:28:47.659Z,82.58
2022-10-29T00:31:24.414Z,82.29
2022-10-29T00:33:54.242Z,82.51
2022-10-29T00:36:26.459Z,82.15
2022-10-29T00:38:53.908Z,82.41
2022-10-29T00:41:26.695Z,82.55
2022-10-29T00:44:20.619Z,82.51
2022-10-29T00:47:04.837Z,82.49
2022-10-29T00:49:34.622Z,82.24
2022-10-29T00:52:05.800Z,82.57
2022-10-29T00:54:38.920Z,82.29
2022-10-29T00:57:20.436Z,82.74
2022-10-29T01:02:17.877Z,82.34
2022-10-29T01:04:47.173Z,82.39
2022-10-29T01:07:14.909Z,82.66
2022-10-29T01:09:42.990Z,82.59
2022-10-29T01:12:13.279Z,82.29
2022-10-29T01:14:52.741Z,82.47
2022-10-29T01:18:21.013Z,82.56
2022-10-29T01:20:51.216Z,82.59
2022-10-29T01:23:32.959Z,82.32
2022-10-29T01:26:21.973Z,82.23
2022-10-29T01:29:16.437Z,82.37
2022-10-29T01:32:11.561Z,82.17
2022-10-29T01:35:19.779Z,82.17
2022-10-29T01:38:12.221Z,81.99
2022-10-29T01:41:16.452Z,81.93
2022-10-29T01:43:55.502Z,82.05
2022-10-29T01:46:37.233Z,82.10
2022-10-29T01:49:13.340Z,81.85
2022-10-29T01:51:42.550Z,82.24
2022-10-29T01:54:12.357Z,82.27
2022-10-29T01:56:39.793Z,81.93
2022-10-29T01:59:18.488Z,82.30
2022-10-29T02:02:38.349Z,82.38
2022-10-29T02:05:34.024Z,82.13
2022-10-29T02:08:43.392Z,82.25
2022-10-29T02:11:16.881Z,81.95
2022-10-29T02:13:59.521Z,81.83
2022-10-29T02:16:28.371Z,81.73
2022-10-29T02:18:57.316Z,82.28
2022-10-29T02:21:25.239Z,81.47
2022-10-29T02:23:53.435Z,81.97
2022-10-29T02:26:21.930Z,82.25
2022-10-29T02:28:49.389Z,82.05
2022-10-29T02:31:16.834Z,81.93
2022-10-29T02:33:44.253Z,82.14
2022-10-29T02:36:11.733Z,81.83
2022-10-29T02:38:39.210Z,82.11
2022-10-29T02:41:06.675Z,82.54
2022-10-29T02:43:34.152Z,81.70
2022-10-29T02:46:24.420Z,81.87
2022-10-29T02:48:51.935Z,81.91
2022-10-29T02:51:19.650Z,81.61
2022-10-29T02:53:47.096Z,81.51
2022-10-29T02:56:14.561Z,81.62
2022-10-29T02:58:42.259Z,81.79
2022-10-29T03:01:10.166Z,81.66
2022-10-29T03:03:37.730Z,81.59
2022-10-29T03:06:05.599Z,81.61
2022-10-29T03:08:32.979Z,82.11
2022-10-29T03:11:00.468Z,81.58
2022-10-29T03:13:28.012Z,82.07
2022-10-29T03:15:55.477Z,81.89
2022-10-29T03:18:25.479Z,81.74
2022-10-29T03:20:53.066Z,81.99
2022-10-29T03:23:20.554Z,81.85
2022-10-29T03:25:55.818Z,81.75
2022-10-29T03:28:26.112Z,82.20
2022-10-29T03:30:53.559Z,82.33
2022-10-29T03:33:21.053Z,82.32
2022-10-29T03:35:48.575Z,82.47
2022-10-29T03:38:18.295Z,82.15
2022-10-29T03:40:45.808Z,81.62
2022-10-29T03:43:13.260Z,82.03
2022-10-29T03:45:40.815Z,82.28
2022-10-29T03:48:08.289Z,82.33
2022-10-29T03:50:35.786Z,81.93
2022-10-29T03:53:03.403Z,81.87
2022-10-29T03:55:31.340Z,82.18
2022-10-29T03:57:59.222Z,82.26
2022-10-29T04:00:26.735Z,82.08
2022-10-29T04:02:54.575Z,82.42
2022-10-29T04:05:22.347Z,82.61
2022-10-29T04:07:49.781Z,82.27
2022-10-29T04:10:17.290Z,82.26
2022-10-29T04:12:48.260Z,82.04
2022-10-29T04:15:16.013Z,82.20
2022-10-29T04:17:43.575Z,82.68
2022-10-29T04:20:21.158Z,82.37
2022-10-29T04:27:07.715Z,82.93
2022-10-29T04:28:50.360Z,82.56
2022-10-29T04:31:19.249Z,82.56
2022-10-29T04:33:46.665Z,82.09
2022-10-29T04:36:14.700Z,82.24
2022-10-29T04:38:42.058Z,82.55
2022-10-29T04:41:09.650Z,82.53
2022-10-29T04:43:37.826Z,82.82
2022-10-29T04:46:05.460Z,82.76
2022-10-29T04:48:33.121Z,82.63
2022-10-29T04:51:00.806Z,82.55
2022-10-29T04:53:28.554Z,82.65
2022-10-29T04:56:05.943Z,82.45
2022-10-29T04:58:33.386Z,82.72
2022-10-29T05:01:05.609Z,82.56
2022-10-29T05:03:34.502Z,82.79
2022-10-29T05:06:06.735Z,82.71
2022-10-29T05:08:34.768Z,82.64
2022-10-29T05:11:21.758Z,82.86
2022-10-29T05:13:49.275Z,82.28
2022-10-29T05:16:16.695Z,82.42
2022-10-29T05:18:44.297Z,82.92
2022-10-29T05:21:11.747Z,82.45
2022-10-29T05:23:39.160Z,82.49
2022-10-29T05:26:12.097Z,82.36
2022-10-29T05:28:39.714Z,82.75
2022-10-29T05:31:07.645Z,82.79
2022-10-29T05:33:35.082Z,82.67
2022-10-29T05:36:02.572Z,83.10
2022-10-29T05:38:30.115Z,82.99
2022-10-29T06:27:31.920Z,84.75
2022-10-29T06:30:00.003Z,85.02
2022-10-29T06:32:34.310Z,84.68
2022-10-29T06:37:53.968Z,84.67
2022-10-29T06:58:10.152Z,85.20
2022-10-29T07:00:44.694Z,85.19
2022-10-29T07:03:19.182Z,85.27
2022-10-29T07:05:47.821Z,85.59
2022-10-29T07:08:20.104Z,85.62
2022-10-29T07:10:55.939Z,85.67
2022-10-29T07:16:04.168Z,85.48
2022-10-29T07:21:22.758Z,85.05
2022-10-29T07:24:04.458Z,84.84
2022-10-29T07:26:43.491Z,84.54
2022-10-29T07:29:14.431Z,84.39
2022-10-29T07:32:04.411Z,84.74
2022-10-29T07:34:36.604Z,85.20
2022-10-29T07:37:08.625Z,84.97
2022-10-29T07:39:43.536Z,84.42
2022-10-29T07:51:14.369Z,84.41
2022-10-29T07:53:58.298Z,84.32
2022-10-29T07:56:29.712Z,84.63
2022-10-29T07:58:58.416Z,84.85
2022-10-29T08:01:27.011Z,84.21
2022-10-29T08:03:54.562Z,84.31
2022-10-29T08:06:26.602Z,84.83
2022-10-29T08:09:00.722Z,84.29
2022-10-29T08:11:31.954Z,84.63
2022-10-29T08:14:02.817Z,84.57
2022-10-29T08:16:31.988Z,84.34
2022-10-29T08:19:00.198Z,83.97
2022-10-29T08:21:28.095Z,84.04
2022-10-29T08:24:00.838Z,83.79
2022-10-29T08:26:28.549Z,83.89
2022-10-29T08:28:56.248Z,83.61
2022-10-29T08:31:24.214Z,83.08
2022-10-29T08:33:51.787Z,82.67
2022-10-29T08:36:19.670Z,83.35
2022-10-29T08:38:54.297Z,82.88
2022-10-29T08:41:25.898Z,82.51
2022-10-29T09:12:22.442Z,81.25
2022-10-29T09:15:14.322Z,80.83
2022-10-29T09:18:10.061Z,80.94
2022-10-29T09:21:12.268Z,81.04
2022-10-29T09:24:08.950Z,80.83
2022-10-29T09:27:02.520Z,80.92
2022-10-29T09:30:05.161Z,80.95
2022-10-29T09:33:07.493Z,81.09
2022-10-29T09:35:41.244Z,80.68
2022-10-29T09:38:35.444Z,80.98
2022-10-29T09:41:04.711Z,81.37
2022-10-29T09:43:40.017Z,81.05
2022-10-29T09:47:09.911Z,81.30
2022-10-29T09:50:09.138Z,81.11
2022-10-29T09:52:41.049Z,80.82
2022-10-29T09:55:20.750Z,80.70
2022-10-29T09:57:49.842Z,80.89
2022-10-29T10:00:36.841Z,80.99
2022-10-29T10:03:14.486Z,81.24
2022-10-29T10:06:10.832Z,81.25
2022-10-29T10:11:24.714Z,81.40
2022-10-29T10:13:58.122Z,81.09
2022-10-29T10:16:32.470Z,81.15
2022-10-29T10:19:00.222Z,81.21
2022-10-29T10:21:33.763Z,81.41
2022-10-29T10:24:01.418Z,81.30
2022-10-29T10:26:44.636Z,81.17
2022-10-29T10:29:27.599Z,81.57
2022-10-29T10:31:57.993Z,81.80
2022-10-29T10:34:36.321Z,81.70
2022-10-29T10:37:20.258Z,81.60
2022-10-29T10:40:24.908Z,81.37
2022-10-29T10:42:55.681Z,81.55
2022-10-29T10:45:39.512Z,81.54
2022-10-29T10:48:13.450Z,81.44
2022-10-29T10:50:41.730Z,81.23
2022-10-29T10:53:26.300Z,81.11
2022-10-29T10:56:00.721Z,80.92
2022-10-29T10:58:44.460Z,80.79
2022-10-29T11:01:23.628Z,80.17
2022-10-29T11:04:10.871Z,80.69
2022-10-29T11:06:47.024Z,80.56
2022-10-29T13:30:47.651Z,81.30
2022-10-29T13:33:29.301Z,81.17
2022-10-29T13:36:16.759Z,81.80
2022-10-29T13:39:06.436Z,81.61
2022-10-29T13:41:54.899Z,81.66
2022-10-29T13:44:26.540Z,81.47
2022-10-29T13:47:04.674Z,81.84
2022-10-29T13:49:41.624Z,81.88
2022-10-29T13:52:24.711Z,81.97
2022-10-29T13:55:09.824Z,81.35
2022-10-29T13:58:07.598Z,81.22
2022-10-29T14:00:38.390Z,81.54
2022-10-29T14:03:21.296Z,81.27
2022-10-29T14:05:53.682Z,81.41
2022-10-29T14:08:47.504Z,81.33
2022-10-29T14:11:30.234Z,81.23
2022-10-29T14:14:02.433Z,81.68
2022-10-29T14:16:32.999Z,81.52
2022-10-29T14:19:16.333Z,81.71
2022-10-29T14:21:43.798Z,81.65
2022-10-29T14:24:15.833Z,81.34
2022-10-29T14:26:45.938Z,81.41
2022-10-29T14:29:22.888Z,81.47
2022-10-29T14:32:18.800Z,81.31
2022-10-29T14:34:50.643Z,81.25
2022-10-29T14:37:37.744Z,81.65
2022-10-29T14:40:22.036Z,81.76
2022-10-29T14:42:54.870Z,81.68
2022-10-29T14:45:28.706Z,82.08
2022-10-29T14:48:03.680Z,82.12
2022-10-29T14:50:32.150Z,82.19
2022-10-29T14:53:07.511Z,81.98
2022-10-29T14:55:42.254Z,81.90
2022-10-29T14:58:12.665Z,82.05
2022-10-29T15:00:58.717Z,82.01
2022-10-29T15:03:30.866Z,82.14
2022-10-29T15:06:19.689Z,82.36
2022-10-29T15:09:03.843Z,82.46
2022-10-29T15:11:48.314Z,82.77
2022-10-29T15:14:30.679Z,82.68
2022-10-29T15:16:59.716Z,82.67
2022-10-29T15:19:27.826Z,82.80
2022-10-29T15:21:55.192Z,82.70
2022-10-29T15:24:25.056Z,82.79
2022-10-29T15:26:58.859Z,82.93
2022-10-29T15:29:42.920Z,82.78
2022-10-29T15:32:17.986Z,82.76
2022-10-29T15:34:55.029Z,82.76
2022-10-29T15:37:42.638Z,82.20
2022-10-29T15:40:19.623Z,82.40
2022-10-29T15:42:47.616Z,82.91
2022-10-29T15:45:28.490Z,82.72
2022-10-29T15:48:18.687Z,82.62
2022-10-29T16:09:03.713Z,83.24
2022-10-29T16:17:20.348Z,83.00
2022-10-29T16:23:41.445Z,83.07
2022-10-29T16:32:40.279Z,83.31
2022-10-29T16:35:33.981Z,83.20
2022-10-29T16:41:28.220Z,83.49
2022-10-29T16:57:31.902Z,84.14
2022-10-29T17:14:31.775Z,83.59
2022-10-29T17:24:06.812Z,83.79
2022-10-29T17:44:41.234Z,83.18
2022-10-29T17:59:22.217Z,83.45
2022-10-29T18:07:26.410Z,83.48
2022-10-29T18:09:55.356Z,83.47
2022-10-29T18:12:22.793Z,83.59
2022-10-29T18:14:50.783Z,83.51
2022-10-29T18:17:18.504Z,83.56
2022-10-29T18:19:48.199Z,83.19
2022-10-29T18:22:16.415Z,83.18
2022-10-29T18:24:53.788Z,83.46
2022-10-29T18:27:26.857Z,83.53
2022-10-29T18:29:54.507Z,83.63
2022-10-29T18:32:21.974Z,83.82
2022-10-29T18:34:53.069Z,83.67
2022-10-29T18:37:23.109Z,83.54
2022-10-29T18:39:52.378Z,83.53
2022-10-29T18:42:22.303Z,83.28
2022-10-29T18:44:50.039Z,83.41
2022-10-29T18:47:17.833Z,83.56
2022-10-29T18:49:48.364Z,83.46
2022-10-29T18:52:19.254Z,84.09
2022-10-29T18:54:51.187Z,83.86
2022-10-29T19:00:14.498Z,83.78
2022-10-29T19:02:52.394Z,84.08
2022-10-29T19:05:55.212Z,83.87
2022-10-29T19:08:26.988Z,83.97
2022-10-29T19:10:55.542Z,84.24
2022-10-29T19:13:23.856Z,83.80
2022-10-29T19:15:52.688Z,84.02
2022-10-29T19:18:20.712Z,84.13
2022-10-29T19:20:49.282Z,83.71
2022-10-29T19:23:17.654Z,84.13
2022-10-29T19:25:47.917Z,83.90
2022-10-29T19:28:16.001Z,83.91
2022-10-29T19:30:44.384Z,83.59
2022-10-29T19:33:16.127Z,83.80
2022-10-29T19:35:46.140Z,83.51
2022-10-29T19:38:15.232Z,83.25
2022-10-29T19:40:43.339Z,83.02
2022-10-29T19:43:16.644Z,83.17
2022-10-29T19:45:45.086Z,83.20
2022-10-29T19:48:12.826Z,82.97
2022-10-29T19:50:40.267Z,82.79
2022-10-29T19:53:08.127Z,83.21
2022-10-29T19:55:40.505Z,83.13
2022-10-29T19:58:08.890Z,83.30
2022-10-29T20:00:37.743Z,83.33
2022-10-29T20:03:05.859Z,83.48
2022-10-29T20:05:35.969Z,83.81
2022-10-29T20:08:19.322Z,83.59
2022-10-29T20:20:25.816Z,83.84
2022-10-29T20:25:36.764Z,83.61
2022-10-29T20:28:05.119Z,83.76
2022-10-29T20:30:32.594Z,83.81
2022-10-29T20:33:00.725Z,83.76
2022-10-29T20:35:28.410Z,83.50
2022-10-29T20:38:00.692Z,83.74
2022-10-29T20:40:38.887Z,83.93
2022-10-29T20:43:11.962Z,83.71
2022-10-29T20:45:39.643Z,84.14
2022-10-29T20:48:11.262Z,83.95
2022-10-29T20:50:40.717Z,84.29
2022-10-29T20:58:21.504Z,83.98
2022-10-29T21:00:52.695Z,83.96
2022-10-29T21:03:22.150Z,83.94
2022-10-29T21:05:53.396Z,84.11
2022-10-29T21:08:23.199Z,84.22
2022-10-29T21:10:50.787Z,84.53
2022-10-29T21:13:18.214Z,84.08
2022-10-29T21:15:45.954Z,84.33
2022-10-29T21:18:13.731Z,84.63
2022-10-29T21:20:42.946Z,84.67
2022-10-29T21:23:10.879Z,84.42
2022-10-29T21:25:38.473Z,84.48
2022-10-29T21:28:06.102Z,84.21
2022-10-29T21:30:33.648Z,84.72
2022-10-29T21:33:01.091Z,84.71
2022-10-29T21:35:28.573Z,84.34
2022-10-29T21:37:56.485Z,84.37
2022-10-29T21:40:24.058Z,84.64
2022-10-29T21:42:56.358Z,84.43
2022-10-29T21:45:25.590Z,84.39
2022-10-29T21:47:56.746Z,84.70
2022-10-29T21:50:24.389Z,84.44
2022-10-29T21:52:51.746Z,84.46
2022-10-29T21:55:19.232Z,84.62
2022-10-29T21:57:46.980Z,84.26
2022-10-29T22:00:24.738Z,84.49
2022-10-29T22:02:52.539Z,84.50
2022-10-29T22:05:20.638Z,84.53
2022-10-29T22:07:48.107Z,84.11
2022-10-29T22:10:15.616Z,84.40
2022-10-29T22:12:43.389Z,84.37
2022-10-29T22:15:11.029Z,84.34
2022-10-29T22:17:38.540Z,84.70
2022-10-29T22:20:07.016Z,84.25
2022-10-29T22:22:34.424Z,84.13
2022-10-29T22:25:02.033Z,84.39
2022-10-29T22:27:29.431Z,84.04
2022-10-29T22:29:56.855Z,84.45
2022-10-29T22:32:24.195Z,83.83
2022-10-29T22:34:52.008Z,84.15
2022-10-29T22:37:19.639Z,84.33
2022-10-29T22:39:47.574Z,84.30
2022-10-29T22:42:17.073Z,84.23
2022-10-29T22:44:46.742Z,84.61
2022-10-29T22:47:15.512Z,84.48
2022-10-29T22:49:43.597Z,84.62
2022-10-29T22:52:12.441Z,84.76
2022-10-29T22:54:40.801Z,84.49
2022-10-29T22:57:08.419Z,84.44
2022-10-29T22:59:35.935Z,84.74
2022-10-29T23:02:03.586Z,84.95
2022-10-29T23:04:31.456Z,84.65
2022-10-29T23:07:01.823Z,84.90
2022-10-29T23:09:29.631Z,85.26
2022-10-29T23:11:57.578Z,84.59
2022-10-29T23:14:25.184Z,84.90
2022-10-29T23:16:53.536Z,84.57
2022-10-29T23:19:20.970Z,84.61
2022-10-29T23:21:48.398Z,84.37
2022-10-29T23:24:16.105Z,84.57
2022-10-29T23:26:43.642Z,84.73
2022-10-29T23:29:11.185Z,84.55
2022-10-29T23:31:39.438Z,84.95
2022-10-29T23:34:07.501Z,84.68
2022-10-29T23:36:35.060Z,84.76
2022-10-29T23:39:02.465Z,84.83
2022-10-29T23:41:31.565Z,84.51
2022-10-29T23:43:59.716Z,84.70
2022-10-29T23:46:27.644Z,84.73
2022-10-29T23:48:55.677Z,84.47
2022-10-29T23:51:23.952Z,84.37
2022-10-29T23:53:54.857Z,84.30
2022-10-29T23:56:25.676Z,84.12
2022-10-29T23:58:53.141Z,84.03
